Adam Lang

Olheiro - Fehervar
4 Abr 2027
Domingo
Processo

Personalidade

Adaptabilidade (1) Ambição (5) Controvérsia (13) Lealdade (6) Pressão (2) Profissionalismo (15) Espírito Esportivo (8) Temperamento (2)

Perfil

Estilo de Treinamento Democrático
Licença Continental Pro
Determinação 10
Gestão de Pessoas 6
Motivação 7
Disciplina 11
Satisfação no Trabalho
23%
Fadiga
0%
Função Olheiro
Salário 12.3K p/s
Contrato 14.03.2030

Desempenho

Comportamento Bom
Eficácia do Treinamento
11%
Desenvolvimento do Jogador
20%
Prevenção de Lesões
45%
Implementação Tática
60%

Eventos Recentes

Avaliou um jogador agora
Avaliou um jogador agora
Participou de uma reunião de recrutamento agora
Recomendou um alvo de transferência agora
Avaliou um jogador agora
Avaliou um jogador 7d atrás
Avaliou um jogador 7d atrás
Avaliou um jogador 7d atrás

Monitorando agora

96
Jogador Clube Status Habilidade Confiança Observado Última observação Último voto
Thulani Mabaso Platinum Stars Ativo 109 / 111 40% 3 03.04.2027 -
Lorenzo Di Stefano Torres Ativo 105 / 108 40% 2 03.04.2027 -
Liam Bennett Cambridge United Ativo 98 / 111 40% 1 03.04.2027 -
Jonathan Sulemana BA All Stars Ativo 102 / 99 40% 3 02.04.2027 -
Yari Verschaeren Sampdoria Ativo 113 / 134 40% 2 02.04.2027 -
Andrea Ciofi Cesena Ativo 134 / 120 40% 1 02.04.2027 -
Mfundo Vilakazi Kaizer Chiefs Ativo 116 / 107 40% 2 30.03.2027 -
Daniel Phillips Stevenage Ativo 118 / 113 40% 2 30.03.2027 -
Udoka Godwin-Malife Burton Albion Ativo 112 / 111 40% 1 30.03.2027 -
Mduduzi Shabalala Kaizer Chiefs Ativo 122 / 116 40% 2 29.03.2027 -
Brian Figueroa Morelia Ativo 104 / 108 40% 2 29.03.2027 -
Luke Thomas Leicester City Ativo 139 / 140 40% 2 29.03.2027 -
Bjarki Bjarkason Südtirol Ativo 123 / 119 40% 1 29.03.2027 -
Solly Khunyedi Bloemfontein Celtic Ativo 98 / 107 40% 1 29.03.2027 -
Dean Campbell Northampton Town Ativo 104 / 107 40% 1 29.03.2027 -
Ibrahim Cissoko Zwolle Ativo 129 / 108 40% 2 27.03.2027 -
Itumeleng Tau Ajax Cape Town Ativo 125 / 115 40% 1 27.03.2027 -
Keagan Hlatshwayo SuperSport United Ativo 121 / 106 40% 2 26.03.2027 -
Jack Currie Oxford United Ativo 131 / 133 40% 3 26.03.2027 -
Fraser Murray Wigan Athletic Ativo 126 / 123 40% 1 26.03.2027 -
André Miranda Porto Ativo 97 / 109 40% 1 25.03.2027 -
Josh Neufville Bradford City Ativo 104 / 103 40% 1 25.03.2027 -
Danil Lipovoy Ufa Ativo 97 / 101 40% 2 24.03.2027 -
Ilja Vakhania Krasnodar Ativo 120 / 128 40% 1 24.03.2027 -
Erick Ngcobo Black Aces Ativo 102 / 112 40% 7 23.03.2027 -
Kyreece Lisbie Colchester United Ativo 114 / 123 40% 1 22.03.2027 -
Bradley Mothiba SuperSport United Ativo 95 / 110 40% 1 22.03.2027 -
Kamogelo Sebelebele Orlando Pirates Ativo 121 / 107 40% 2 21.03.2027 -
Ben Jackson Barrow AFC Ativo 83 / 96 40% 1 21.03.2027 -
Ilja Berkovskiy Torpedo Moscow Ativo 108 / 107 40% 1 21.03.2027 -
Irakli Yegoian Excelsior Ativo 120 / 131 40% 1 21.03.2027 -
Ronaldo Maarman University of Pretoria Ativo 111 / 112 40% 2 20.03.2027 -
Lebogang Erasmus Platinum Stars Ativo 112 / 111 40% 1 20.03.2027 -
Charlie Webster Burton Albion Ativo 107 / 123 40% 2 19.03.2027 -
Daniel Kyerewaa Reading Ativo 121 / 117 40% 2 19.03.2027 -
Géza Dávid Turi Grimsby Town Ativo 90 / 94 40% 1 19.03.2027 -
Wandile Duba Bidvest Wits Ativo 94 / 118 40% 4 18.03.2027 -
Azola Matrose Chippa United Ativo 94 / 96 40% 2 12.03.2027 -
Monty Batlhabane Polokwane City Ativo 96 / 87 40% 2 06.03.2027 -
Simon Ramabu Polokwane City Ativo 114 / 107 40% 2 03.03.2027 -
Siyanda Msani University of Pretoria Ativo 112 / 113 40% 1 03.03.2027 -
Luke Baartman Chippa United Ativo 111 / 101 40% 3 28.02.2027 -
Thalente Mbatha Orlando Pirates Ativo 112 / 115 40% 1 28.02.2027 -
Jordan Brown Blackpool Ativo 98 / 102 40% 2 27.02.2027 -
Kyle John Port Vale Ativo 101 / 109 40% 1 27.02.2027 -
Franko Kovačević Ferencvaros Ativo 124 / 117 40% 4 26.02.2027 -
Damián Puebla Orenburg Ativo 118 / 132 40% 1 26.02.2027 -
Ivan Bendera Epicentr Ativo 95 / 102 40% 1 24.02.2027 -
Jay Matete Milton Keynes Dons Ativo 115 / 103 40% 2 21.02.2027 -
Mohammad Javad Hosseinnejad Dinamo Makhachkala Ativo 104 / 119 40% 1 18.02.2027 -
Mpho Mathebula Bloemfontein Celtic Ativo 112 / 116 40% 2 12.02.2027 -
Adil Taoui Lokomotiv Sofia Ativo 115 / 102 40% 1 12.02.2027 -
Stanislav Ivanov Arda Ativo 115 / 116 40% 1 11.02.2027 -
Brooklyn Poggenpoel Maritzburg United Ativo 112 / 109 40% 1 11.02.2027 -
Teboho Tau Ajax Cape Town Ativo 120 / 108 40% 2 10.02.2027 -
Charlie Whitaker Tranmere Rovers Ativo 104 / 100 40% 1 09.02.2027 -
Soltmurad Bakaev Rodina Ativo 115 / 115 40% 1 08.02.2027 -
Alejo Dramisino Honved Ativo 125 / 113 40% 2 03.02.2027 -
Álex Centelles Levski Ativo 132 / 127 40% 1 03.02.2027 -
Tibor Szabó Honved Ativo 87 / 83 72% 1 25.01.2027 Aprovar
Urho Nissilä Puskas Akademia Ativo 106 / 100 40% 1 31.12.2026 -
Thabang Matuludi Polokwane City Ativo 105 / 101 40% 1 31.12.2026 -
Kabelo Dlamini Orlando Pirates Ativo 93 / 101 40% 1 31.12.2026 -
Alexey Mironov Rostov Ativo 112 / 118 40% 2 11.12.2026 -
Basil Mphahlele Jomo Cosmos Ativo 91 / 92 40% 1 11.12.2026 -
Vladimir Miletić Slavia Sofia Ativo 98 / 103 40% 1 11.12.2026 -
Harry Williams Walsall Ativo 99 / 88 40% 2 10.12.2026 -
Jean-Philippe Gbamin CSKA Sofia Ativo 120 / 129 40% 1 10.12.2026 -
Ryan Johnson AFC Wimbledon Ativo 99 / 101 40% 1 10.12.2026 -
Akos Bese Haladas Rejeitado 112 / 114 40% 1 10.12.2026 Mais informações
Ognjen Gašević CSKA 1948 Ativo 113 / 122 40% 1 10.12.2026 -
Sándor Hidi M. Vasas Ativo 102 / 96 40% 2 07.12.2026 Mais informações
Siphamandla Ncanana Maritzburg United Ativo 104 / 96 40% 1 07.12.2026 Mais informações
Bathusi Aubaas Mamelodi Sundowns Ativo 124 / 132 40% 1 07.12.2026 -
Bence Bárdos Diosgyor Ativo 96 / 103 40% 1 20.11.2026 -
Jan Đapo NK Domzale Ativo 105 / 106 40% 1 20.11.2026 -
Alistair Smith AFC Wimbledon Ativo 106 / 97 40% 1 20.11.2026 -
Valentin Yefimov Ravan Ativo 119 / 126 40% 1 18.11.2026 -
Alfredo Garcia La Equidad Ativo 147 / 138 40% 2 04.11.2026 -
Anderson Esiti Diosgyor Ativo 102 / 101 40% 1 04.11.2026 -
Mihály Kata MTK Budapest Ativo 122 / 128 40% 1 03.11.2026 -
Iker Pozo Rodina Ativo 121 / 116 40% 1 03.11.2026 -
Victor Melekhin Rostov Ativo 128 / 131 40% 1 02.11.2026 -
Lee O'Connor Tranmere Rovers Ativo 104 / 87 40% 1 06.10.2026 -
Gonzalo Gamarra Floriana Ativo 101 / 102 40% 1 06.10.2026 -
Quentin Maceiras Puskas Akademia Ativo 111 / 103 40% 1 05.10.2026 -
Ádám Nagy Ferencvaros Ativo 114 / 109 40% 1 05.10.2026 -
Istvan Gazdag Haladas Ativo 116 / 116 40% 1 10.09.2026 -
Bendegúz Bolla Rapid Wien Ativo 123 / 118 40% 1 10.09.2026 -
Daniel Harvie Wycombe Wanderers Ativo 106 / 119 40% 1 08.09.2026 -
Jordan Storey Preston Ativo 110 / 111 40% 1 31.08.2026 -
Sean Nealis DC United Ativo 99 / 120 40% 1 24.08.2026 -
Rubén Pulido Leganés Ativo 122 / 102 40% 1 24.08.2026 -
José Pinto Mineros de Guayana Ativo 107 / 97 40% 1 24.08.2026 -
Joel Fameyeh Puskas Akademia Ativo 109 / 111 40% 1 01.08.2026 -
Brian Andrada Gimnasia y Esgrima Ativo 121 / 121 40% 1 01.08.2026 -